sensor_id;sensor_type;location;lat;lon;timestamp;temperature;humidity
23717;DHT22;22094;52.130;5.598;2022-11-20T00:00:01;-5.00;99.90
23717;DHT22;22094;52.130;5.598;2022-11-20T00:02:26;-5.10;99.90
23717;DHT22;22094;52.130;5.598;2022-11-20T00:04:52;-5.00;99.90
23717;DHT22;22094;52.130;5.598;2022-11-20T00:07:17;-5.00;99.90
23717;DHT22;22094;52.130;5.598;2022-11-20T00:09:43;-4.70;99.90
23717;DHT22;22094;52.130;5.598;2022-11-20T00:12:08;-4.40;99.90
23717;DHT22;22094;52.130;5.598;2022-11-20T00:14:34;-4.40;99.90
23717;DHT22;22094;52.130;5.598;2022-11-20T00:16:59;-4.40;99.90
23717;DHT22;22094;52.130;5.598;2022-11-20T00:19:25;-4.50;99.90
23717;DHT22;22094;52.130;5.598;2022-11-20T00:21:51;-4.70;99.90
23717;DHT22;22094;52.130;5.598;2022-11-20T00:24:19;-4.90;99.90
23717;DHT22;22094;52.130;5.598;2022-11-20T00:26:44;-5.00;99.90
23717;DHT22;22094;52.130;5.598;2022-11-20T00:29:10;-5.10;99.90
23717;DHT22;22094;52.130;5.598;2022-11-20T00:31:36;-5.10;99.90
23717;DHT22;22094;52.130;5.598;2022-11-20T00:34:03;-5.10;99.90
23717;DHT22;22094;52.130;5.598;2022-11-20T00:36:31;-5.20;99.90
23717;DHT22;22094;52.130;5.598;2022-11-20T00:38:58;-5.10;99.90
23717;DHT22;22094;52.130;5.598;2022-11-20T00:41:25;-5.20;99.90
23717;DHT22;22094;52.130;5.598;2022-11-20T00:43:55;-5.20;99.90
23717;DHT22;22094;52.130;5.598;2022-11-20T00:46:22;-5.30;99.90
23717;DHT22;22094;52.130;5.598;2022-11-20T00:48:48;-5.30;99.90
23717;DHT22;22094;52.130;5.598;2022-11-20T00:51:16;-5.40;99.90
23717;DHT22;22094;52.130;5.598;2022-11-20T00:53:42;-5.40;99.90
23717;DHT22;22094;52.130;5.598;2022-11-20T00:56:13;-5.30;99.90
23717;DHT22;22094;52.130;5.598;2022-11-20T00:58:42;-5.40;99.90
23717;DHT22;22094;52.130;5.598;2022-11-20T01:03:40;-5.50;99.90
23717;DHT22;22094;52.130;5.598;2022-11-20T01:06:11;-5.50;99.90
23717;DHT22;22094;52.130;5.598;2022-11-20T01:08:38;-5.50;99.90
23717;DHT22;22094;52.130;5.598;2022-11-20T01:11:07;-5.40;99.90
23717;DHT22;22094;52.130;5.598;2022-11-20T01:13:33;-5.20;99.90
23717;DHT22;22094;52.130;5.598;2022-11-20T01:18:34;-4.90;99.90
23717;DHT22;22094;52.130;5.598;2022-11-20T01:21:05;-4.80;99.90
23717;DHT22;22094;52.130;5.598;2022-11-20T01:23:32;-4.70;99.90
23717;DHT22;22094;52.130;5.598;2022-11-20T01:26:00;-5.10;99.90
23717;DHT22;22094;52.130;5.598;2022-11-20T01:28:26;-4.60;99.90
23717;DHT22;22094;52.130;5.598;2022-11-20T01:30:53;-4.60;99.90
23717;DHT22;22094;52.130;5.598;2022-11-20T01:33:18;-4.70;99.90
23717;DHT22;22094;52.130;5.598;2022-11-20T01:35:44;-4.80;99.90
23717;DHT22;22094;52.130;5.598;2022-11-20T01:38:09;-5.00;99.90
23717;DHT22;22094;52.130;5.598;2022-11-20T01:40:35;-5.00;99.90
23717;DHT22;22094;52.130;5.598;2022-11-20T01:43:16;-5.10;99.90
23717;DHT22;22094;52.130;5.598;2022-11-20T01:46:17;-5.20;99.90
23717;DHT22;22094;52.130;5.598;2022-11-20T01:51:29;-5.40;99.90
23717;DHT22;22094;52.130;5.598;2022-11-20T01:54:01;-5.40;99.90
23717;DHT22;22094;52.130;5.598;2022-11-20T01:56:31;-5.50;99.90
23717;DHT22;22094;52.130;5.598;2022-11-20T01:59:00;-5.70;99.90
23717;DHT22;22094;52.130;5.598;2022-11-20T02:01:26;-5.20;99.90
23717;DHT22;22094;52.130;5.598;2022-11-20T02:03:52;-5.90;99.90
23717;DHT22;22094;52.130;5.598;2022-11-20T02:06:30;-6.00;99.90
23717;DHT22;22094;52.130;5.598;2022-11-20T02:08:57;-6.10;99.90
23717;DHT22;22094;52.130;5.598;2022-11-20T02:11:22;-6.10;99.90
23717;DHT22;22094;52.130;5.598;2022-11-20T02:13:48;-6.00;99.90
23717;DHT22;22094;52.130;5.598;2022-11-20T02:16:22;-6.00;99.90
23717;DHT22;22094;52.130;5.598;2022-11-20T02:18:49;-5.90;99.90
23717;DHT22;22094;52.130;5.598;2022-11-20T02:26:31;-6.10;99.90
23717;DHT22;22094;52.130;5.598;2022-11-20T02:28:59;-6.20;99.90
23717;DHT22;22094;52.130;5.598;2022-11-20T02:31:25;-6.20;99.90
23717;DHT22;22094;52.130;5.598;2022-11-20T02:33:56;-6.00;99.90
23717;DHT22;22094;52.130;5.598;2022-11-20T02:36:23;-6.00;99.90
23717;DHT22;22094;52.130;5.598;2022-11-20T02:38:50;-6.10;99.90
23717;DHT22;22094;52.130;5.598;2022-11-20T02:41:15;-6.10;99.90
23717;DHT22;22094;52.130;5.598;2022-11-20T02:43:41;-6.10;99.90
23717;DHT22;22094;52.130;5.598;2022-11-20T02:46:07;-6.10;99.90
23717;DHT22;22094;52.130;5.598;2022-11-20T02:48:33;-6.10;99.90
23717;DHT22;22094;52.130;5.598;2022-11-20T02:50:58;-6.10;99.90
23717;DHT22;22094;52.130;5.598;2022-11-20T02:53:24;-6.10;99.90
23717;DHT22;22094;52.130;5.598;2022-11-20T02:55:50;-6.20;99.90
23717;DHT22;22094;52.130;5.598;2022-11-20T02:58:15;-6.30;99.90
23717;DHT22;22094;52.130;5.598;2022-11-20T03:00:41;-6.30;99.90
23717;DHT22;22094;52.130;5.598;2022-11-20T03:03:06;-6.10;99.90
23717;DHT22;22094;52.130;5.598;2022-11-20T03:05:32;-6.10;99.90
23717;DHT22;22094;52.130;5.598;2022-11-20T03:07:57;-6.10;99.90
23717;DHT22;22094;52.130;5.598;2022-11-20T03:10:23;-6.10;99.90
23717;DHT22;22094;52.130;5.598;2022-11-20T03:12:53;-6.10;99.90
23717;DHT22;22094;52.130;5.598;2022-11-20T03:15:19;-6.30;99.90
23717;DHT22;22094;52.130;5.598;2022-11-20T03:17:45;-6.40;99.90
23717;DHT22;22094;52.130;5.598;2022-11-20T03:20:10;-6.40;99.90
23717;DHT22;22094;52.130;5.598;2022-11-20T03:22:36;-6.40;99.90
23717;DHT22;22094;52.130;5.598;2022-11-20T03:25:02;-6.50;99.90
23717;DHT22;22094;52.130;5.598;2022-11-20T03:27:34;-6.70;99.90
23717;DHT22;22094;52.130;5.598;2022-11-20T03:30:00;-6.50;99.90
23717;DHT22;22094;52.130;5.598;2022-11-20T03:32:26;-6.50;99.90
23717;DHT22;22094;52.130;5.598;2022-11-20T03:34:52;-6.50;99.90
23717;DHT22;22094;52.130;5.598;2022-11-20T03:37:17;-6.70;99.90
23717;DHT22;22094;52.130;5.598;2022-11-20T03:39:43;-6.70;99.90
23717;DHT22;22094;52.130;5.598;2022-11-20T03:42:09;-6.60;99.90
23717;DHT22;22094;52.130;5.598;2022-11-20T03:44:54;-6.50;99.90
23717;DHT22;22094;52.130;5.598;2022-11-20T03:47:20;-6.40;99.90
23717;DHT22;22094;52.130;5.598;2022-11-20T03:49:46;-6.40;99.90
23717;DHT22;22094;52.130;5.598;2022-11-20T03:52:11;-6.40;99.90
23717;DHT22;22094;52.130;5.598;2022-11-20T03:54:37;-6.50;99.90
23717;DHT22;22094;52.130;5.598;2022-11-20T03:57:02;-6.50;99.90
23717;DHT22;22094;52.130;5.598;2022-11-20T03:59:28;-6.50;99.90
23717;DHT22;22094;52.130;5.598;2022-11-20T04:01:53;-6.50;99.90
23717;DHT22;22094;52.130;5.598;2022-11-20T04:04:19;-6.70;99.90
23717;DHT22;22094;52.130;5.598;2022-11-20T04:06:44;-6.70;99.90
23717;DHT22;22094;52.130;5.598;2022-11-20T04:09:10;-6.80;99.90
23717;DHT22;22094;52.130;5.598;2022-11-20T04:11:37;-6.80;99.90
23717;DHT22;22094;52.130;5.598;2022-11-20T04:14:06;-6.80;99.90
23717;DHT22;22094;52.130;5.598;2022-11-20T04:16:34;-6.70;99.90
23717;DHT22;22094;52.130;5.598;2022-11-20T04:19:02;-6.80;99.90
23717;DHT22;22094;52.130;5.598;2022-11-20T04:21:29;-6.80;99.90
23717;DHT22;22094;52.130;5.598;2022-11-20T04:23:55;-6.80;99.90
23717;DHT22;22094;52.130;5.598;2022-11-20T04:26:22;-7.00;99.90
23717;DHT22;22094;52.130;5.598;2022-11-20T04:28:49;-6.90;99.90
23717;DHT22;22094;52.130;5.598;2022-11-20T04:31:17;-6.90;99.90
23717;DHT22;22094;52.130;5.598;2022-11-20T04:33:42;-6.80;99.90
23717;DHT22;22094;52.130;5.598;2022-11-20T04:38:37;-6.80;99.90
23717;DHT22;22094;52.130;5.598;2022-11-20T04:41:05;-6.70;99.90
23717;DHT22;22094;52.130;5.598;2022-11-20T04:43:32;-6.80;99.90
23717;DHT22;22094;52.130;5.598;2022-11-20T04:45:59;-6.90;99.90
23717;DHT22;22094;52.130;5.598;2022-11-20T04:48:26;-7.00;99.90
23717;DHT22;22094;52.130;5.598;2022-11-20T04:50:52;-7.00;99.90
23717;DHT22;22094;52.130;5.598;2022-11-20T04:53:18;-7.10;99.90
23717;DHT22;22094;52.130;5.598;2022-11-20T04:55:44;-7.00;99.90
23717;DHT22;22094;52.130;5.598;2022-11-20T04:58:09;-6.90;99.90
23717;DHT22;22094;52.130;5.598;2022-11-20T05:00:35;-6.80;99.90
23717;DHT22;22094;52.130;5.598;2022-11-20T05:03:01;-6.80;99.90
23717;DHT22;22094;52.130;5.598;2022-11-20T05:05:26;-6.90;99.90
23717;DHT22;22094;52.130;5.598;2022-11-20T05:07:52;-7.10;99.90
23717;DHT22;22094;52.130;5.598;2022-11-20T05:10:18;-7.20;99.90
23717;DHT22;22094;52.130;5.598;2022-11-20T05:12:43;-7.20;99.90
23717;DHT22;22094;52.130;5.598;2022-11-20T05:15:09;-7.00;99.90
23717;DHT22;22094;52.130;5.598;2022-11-20T05:17:35;-7.00;99.90
23717;DHT22;22094;52.130;5.598;2022-11-20T05:20:00;-7.10;99.90
23717;DHT22;22094;52.130;5.598;2022-11-20T05:22:26;-7.20;99.90
23717;DHT22;22094;52.130;5.598;2022-11-20T05:24:51;-7.30;99.90
23717;DHT22;22094;52.130;5.598;2022-11-20T05:27:18;-7.40;99.90
23717;DHT22;22094;52.130;5.598;2022-11-20T05:29:43;-7.50;99.90
23717;DHT22;22094;52.130;5.598;2022-11-20T05:32:09;-7.50;99.90
23717;DHT22;22094;52.130;5.598;2022-11-20T05:34:35;-7.30;99.90
23717;DHT22;22094;52.130;5.598;2022-11-20T05:37:02;-7.20;99.90
23717;DHT22;22094;52.130;5.598;2022-11-20T05:39:27;-7.20;99.90
23717;DHT22;22094;52.130;5.598;2022-11-20T05:41:53;-7.30;99.90
23717;DHT22;22094;52.130;5.598;2022-11-20T05:44:39;-7.30;99.90
23717;DHT22;22094;52.130;5.598;2022-11-20T05:47:04;-7.10;99.90
23717;DHT22;22094;52.130;5.598;2022-11-20T05:49:30;-7.10;99.90
23717;DHT22;22094;52.130;5.598;2022-11-20T05:51:56;-7.00;99.90
23717;DHT22;22094;52.130;5.598;2022-11-20T05:54:21;-7.10;99.90
23717;DHT22;22094;52.130;5.598;2022-11-20T05:56:47;-7.00;99.90
23717;DHT22;22094;52.130;5.598;2022-11-20T05:59:12;-7.00;99.90
23717;DHT22;22094;52.130;5.598;2022-11-20T06:01:38;-7.10;99.90
23717;DHT22;22094;52.130;5.598;2022-11-20T06:04:03;-7.20;99.90
23717;DHT22;22094;52.130;5.598;2022-11-20T06:06:29;-7.20;99.90
23717;DHT22;22094;52.130;5.598;2022-11-20T06:08:55;-7.20;99.90
23717;DHT22;22094;52.130;5.598;2022-11-20T06:11:21;-7.10;99.90
23717;DHT22;22094;52.130;5.598;2022-11-20T06:13:47;-7.00;99.90
23717;DHT22;22094;52.130;5.598;2022-11-20T06:16:15;-7.10;99.90
23717;DHT22;22094;52.130;5.598;2022-11-20T06:18:41;-7.10;99.90
23717;DHT22;22094;52.130;5.598;2022-11-20T06:21:18;-7.00;99.90
23717;DHT22;22094;52.130;5.598;2022-11-20T06:23:45;-7.10;99.90
23717;DHT22;22094;52.130;5.598;2022-11-20T06:26:21;-7.20;99.90
23717;DHT22;22094;52.130;5.598;2022-11-20T06:28:48;-7.30;99.90
23717;DHT22;22094;52.130;5.598;2022-11-20T06:31:16;-7.30;99.90
23717;DHT22;22094;52.130;5.598;2022-11-20T06:33:43;-7.20;99.90
23717;DHT22;22094;52.130;5.598;2022-11-20T06:36:10;-7.20;99.90
23717;DHT22;22094;52.130;5.598;2022-11-20T06:38:37;-7.20;99.90
23717;DHT22;22094;52.130;5.598;2022-11-20T06:41:04;-7.10;99.90
23717;DHT22;22094;52.130;5.598;2022-11-20T06:43:29;-7.00;99.90
23717;DHT22;22094;52.130;5.598;2022-11-20T06:45:57;-6.90;99.90
23717;DHT22;22094;52.130;5.598;2022-11-20T06:48:23;-6.90;99.90
23717;DHT22;22094;52.130;5.598;2022-11-20T06:50:49;-7.00;99.90
23717;DHT22;22094;52.130;5.598;2022-11-20T06:53:14;-7.10;99.90
23717;DHT22;22094;52.130;5.598;2022-11-20T06:55:47;-7.20;99.90
23717;DHT22;22094;52.130;5.598;2022-11-20T06:58:14;-7.30;99.90
23717;DHT22;22094;52.130;5.598;2022-11-20T07:00:40;-7.20;99.90
23717;DHT22;22094;52.130;5.598;2022-11-20T07:03:07;-7.10;99.90
23717;DHT22;22094;52.130;5.598;2022-11-20T07:05:33;-7.00;99.90
23717;DHT22;22094;52.130;5.598;2022-11-20T07:07:59;-6.90;99.90
23717;DHT22;22094;52.130;5.598;2022-11-20T07:10:25;-6.90;99.90
23717;DHT22;22094;52.130;5.598;2022-11-20T07:12:52;-7.00;99.90
23717;DHT22;22094;52.130;5.598;2022-11-20T07:15:19;-7.00;99.90
23717;DHT22;22094;52.130;5.598;2022-11-20T07:17:45;-6.90;99.90
23717;DHT22;22094;52.130;5.598;2022-11-20T07:20:11;-6.90;99.90
23717;DHT22;22094;52.130;5.598;2022-11-20T07:22:37;-6.90;99.90
23717;DHT22;22094;52.130;5.598;2022-11-20T07:25:03;-6.80;99.90
23717;DHT22;22094;52.130;5.598;2022-11-20T07:27:29;-6.80;99.90
23717;DHT22;22094;52.130;5.598;2022-11-20T07:29:55;-6.80;99.90
23717;DHT22;22094;52.130;5.598;2022-11-20T07:32:21;-6.70;99.90
23717;DHT22;22094;52.130;5.598;2022-11-20T07:34:46;-6.50;99.90
23717;DHT22;22094;52.130;5.598;2022-11-20T07:37:12;-6.70;99.90
23717;DHT22;22094;52.130;5.598;2022-11-20T07:39:38;-6.80;99.90
23717;DHT22;22094;52.130;5.598;2022-11-20T07:42:03;-6.90;99.90
23717;DHT22;22094;52.130;5.598;2022-11-20T07:44:29;-6.70;99.90
23717;DHT22;22094;52.130;5.598;2022-11-20T07:46:54;-7.70;99.90
23717;DHT22;22094;52.130;5.598;2022-11-20T07:49:20;-4.40;99.90
23717;DHT22;22094;52.130;5.598;2022-11-20T07:51:46;-6.50;99.90
23717;DHT22;22094;52.130;5.598;2022-11-20T07:54:11;-6.40;99.90
23717;DHT22;22094;52.130;5.598;2022-11-20T07:56:36;-6.40;99.90
23717;DHT22;22094;52.130;5.598;2022-11-20T07:59:03;-6.40;99.90
23717;DHT22;22094;52.130;5.598;2022-11-20T08:03:55;-4.30;99.90
23717;DHT22;22094;52.130;5.598;2022-11-20T08:08:46;-5.80;99.90
23717;DHT22;22094;52.130;5.598;2022-11-20T08:11:12;-3.50;99.90
23717;DHT22;22094;52.130;5.598;2022-11-20T08:13:56;-5.40;99.90
23717;DHT22;22094;52.130;5.598;2022-11-20T08:16:38;-5.30;99.90
23717;DHT22;22094;52.130;5.598;2022-11-20T08:19:03;-6.40;99.90
23717;DHT22;22094;52.130;5.598;2022-11-20T08:21:30;-3.80;99.90
23717;DHT22;22094;52.130;5.598;2022-11-20T08:23:57;-4.80;99.90
23717;DHT22;22094;52.130;5.598;2022-11-20T08:26:23;-4.70;99.90
23717;DHT22;22094;52.130;5.598;2022-11-20T08:28:49;-5.60;99.90
23717;DHT22;22094;52.130;5.598;2022-11-20T08:33:40;-3.90;99.90
23717;DHT22;22094;52.130;5.598;2022-11-20T08:36:06;-4.20;99.90
23717;DHT22;22094;52.130;5.598;2022-11-20T08:38:32;-4.20;99.90
23717;DHT22;22094;52.130;5.598;2022-11-20T08:40:59;-4.50;99.90
23717;DHT22;22094;52.130;5.598;2022-11-20T08:43:43;-4.10;99.90
23717;DHT22;22094;52.130;5.598;2022-11-20T08:48:35;-3.00;99.90
23717;DHT22;22094;52.130;5.598;2022-11-20T08:51:01;-3.60;99.90
23717;DHT22;22094;52.130;5.598;2022-11-20T08:53:27;-2.00;99.90
23717;DHT22;22094;52.130;5.598;2022-11-20T08:55:53;-1.50;99.90
23717;DHT22;22094;52.130;5.598;2022-11-20T08:58:18;-3.10;99.90
23717;DHT22;22094;52.130;5.598;2022-11-20T09:00:44;-2.70;99.90
23717;DHT22;22094;52.130;5.598;2022-11-20T09:03:09;-2.90;99.90
23717;DHT22;22094;52.130;5.598;2022-11-20T09:08:01;-2.40;99.90
23717;DHT22;22094;52.130;5.598;2022-11-20T09:12:53;-2.20;99.90
23717;DHT22;22094;52.130;5.598;2022-11-20T09:15:20;-2.10;99.90
23717;DHT22;22094;52.130;5.598;2022-11-20T09:17:58;1.60;99.90
23717;DHT22;22094;52.130;5.598;2022-11-20T09:20:24;-1.00;99.90
23717;DHT22;22094;52.130;5.598;2022-11-20T09:22:50;0.20;99.90
23717;DHT22;22094;52.130;5.598;2022-11-20T09:25:16;-1.70;99.90
23717;DHT22;22094;52.130;5.598;2022-11-20T09:27:42;-1.20;99.90
23717;DHT22;22094;52.130;5.598;2022-11-20T09:30:09;-1.50;99.90
23717;DHT22;22094;52.130;5.598;2022-11-20T09:32:35;-1.30;99.90
23717;DHT22;22094;52.130;5.598;2022-11-20T09:35:01;-0.80;99.90
23717;DHT22;22094;52.130;5.598;2022-11-20T09:42:37;-1.00;99.90
23717;DHT22;22094;52.130;5.598;2022-11-20T09:48:08;-0.80;99.90
23717;DHT22;22094;52.130;5.598;2022-11-20T09:50:51;-1.00;99.90
23717;DHT22;22094;52.130;5.598;2022-11-20T09:56:01;0.80;99.90
23717;DHT22;22094;52.130;5.598;2022-11-20T09:58:42;-0.70;99.90
23717;DHT22;22094;52.130;5.598;2022-11-20T10:01:21;0.90;99.90
23717;DHT22;22094;52.130;5.598;2022-11-20T10:03:53;-0.40;99.90
23717;DHT22;22094;52.130;5.598;2022-11-20T10:06:24;-2.50;99.90
23717;DHT22;22094;52.130;5.598;2022-11-20T10:09:01;-0.90;99.90
23717;DHT22;22094;52.130;5.598;2022-11-20T10:11:41;2.00;99.90
23717;DHT22;22094;52.130;5.598;2022-11-20T10:14:25;0.20;99.90
23717;DHT22;22094;52.130;5.598;2022-11-20T10:22:51;0.20;99.90
23717;DHT22;22094;52.130;5.598;2022-11-20T10:25:19;0.00;99.90
23717;DHT22;22094;52.130;5.598;2022-11-20T10:30:21;0.10;99.90
23717;DHT22;22094;52.130;5.598;2022-11-20T10:32:55;1.40;99.90
23717;DHT22;22094;52.130;5.598;2022-11-20T10:36:05;0.40;99.90
23717;DHT22;22094;52.130;5.598;2022-11-20T10:38:23;0.70;99.90
23717;DHT22;22094;52.130;5.598;2022-11-20T10:40:59;0.70;99.90
23717;DHT22;22094;52.130;5.598;2022-11-20T10:43:45;3.10;99.90
23717;DHT22;22094;52.130;5.598;2022-11-20T10:46:17;0.90;99.90
23717;DHT22;22094;52.130;5.598;2022-11-20T10:48:44;1.00;99.90
23717;DHT22;22094;52.130;5.598;2022-11-20T10:54:12;-1.70;99.90
23717;DHT22;22094;52.130;5.598;2022-11-20T10:56:46;3.80;99.90
23717;DHT22;22094;52.130;5.598;2022-11-20T10:59:38;1.80;99.90
23717;DHT22;22094;52.130;5.598;2022-11-20T11:04:47;1.20;99.90
23717;DHT22;22094;52.130;5.598;2022-11-20T11:07:33;3.10;99.90
23717;DHT22;22094;52.130;5.598;2022-11-20T11:12:28;1.50;99.90
23717;DHT22;22094;52.130;5.598;2022-11-20T11:14:56;-1.20;99.90
23717;DHT22;22094;52.130;5.598;2022-11-20T11:17:33;1.70;99.90
23717;DHT22;22094;52.130;5.598;2022-11-20T11:20:00;3.10;99.90
23717;DHT22;22094;52.130;5.598;2022-11-20T11:22:29;2.00;99.90
23717;DHT22;22094;52.130;5.598;2022-11-20T11:24:55;3.50;99.90
23717;DHT22;22094;52.130;5.598;2022-11-20T11:27:21;2.70;99.90
23717;DHT22;22094;52.130;5.598;2022-11-20T11:32:20;3.90;99.90
23717;DHT22;22094;52.130;5.598;2022-11-20T11:35:02;3.30;99.90
23717;DHT22;22094;52.130;5.598;2022-11-20T11:37:37;2.70;99.90
23717;DHT22;22094;52.130;5.598;2022-11-20T11:40:04;3.10;99.90
23717;DHT22;22094;52.130;5.598;2022-11-20T11:42:31;2.40;99.90
23717;DHT22;22094;52.130;5.598;2022-11-20T11:44:59;3.00;99.90
23717;DHT22;22094;52.130;5.598;2022-11-20T11:47:45;2.40;99.90
23717;DHT22;22094;52.130;5.598;2022-11-20T11:56:02;3.50;99.90
23717;DHT22;22094;52.130;5.598;2022-11-20T11:58:47;0.50;99.90
23717;DHT22;22094;52.130;5.598;2022-11-20T12:01:54;2.00;99.90
23717;DHT22;22094;52.130;5.598;2022-11-20T12:04:43;2.20;99.90
23717;DHT22;22094;52.130;5.598;2022-11-20T12:09:52;-0.70;99.90
23717;DHT22;22094;52.130;5.598;2022-11-20T12:12:23;4.00;99.90
23717;DHT22;22094;52.130;5.598;2022-11-20T12:14:53;2.10;99.90
23717;DHT22;22094;52.130;5.598;2022-11-20T12:17:20;2.00;99.90
23717;DHT22;22094;52.130;5.598;2022-11-20T12:19:45;2.00;99.90
23717;DHT22;22094;52.130;5.598;2022-11-20T12:22:22;-0.80;99.90
23717;DHT22;22094;52.130;5.598;2022-11-20T12:25:07;0.40;99.90
23717;DHT22;22094;52.130;5.598;2022-11-20T12:30:16;2.10;99.90
23717;DHT22;22094;52.130;5.598;2022-11-20T12:41:46;2.20;99.90
23717;DHT22;22094;52.130;5.598;2022-11-20T12:44:40;2.50;99.90
23717;DHT22;22094;52.130;5.598;2022-11-20T12:50:23;2.40;99.90
23717;DHT22;22094;52.130;5.598;2022-11-20T12:53:07;2.50;99.90
23717;DHT22;22094;52.130;5.598;2022-11-20T13:06:56;2.00;99.90
23717;DHT22;22094;52.130;5.598;2022-11-20T13:09:23;2.40;99.90
23717;DHT22;22094;52.130;5.598;2022-11-20T13:12:03;2.10;99.90
23717;DHT22;22094;52.130;5.598;2022-11-20T13:19:56;2.30;99.90
23717;DHT22;22094;52.130;5.598;2022-11-20T13:22:48;2.00;99.90
23717;DHT22;22094;52.130;5.598;2022-11-20T13:25:37;-0.20;99.90
23717;DHT22;22094;52.130;5.598;2022-11-20T13:30:35;2.80;99.90
23717;DHT22;22094;52.130;5.598;2022-11-20T13:33:07;2.30;99.90
23717;DHT22;22094;52.130;5.598;2022-11-20T13:35:35;2.50;99.90
23717;DHT22;22094;52.130;5.598;2022-11-20T13:38:09;2.10;99.90
23717;DHT22;22094;52.130;5.598;2022-11-20T13:40:37;-0.40;99.90
23717;DHT22;22094;52.130;5.598;2022-11-20T13:43:38;2.10;99.90
23717;DHT22;22094;52.130;5.598;2022-11-20T13:46:07;2.20;99.90
23717;DHT22;22094;52.130;5.598;2022-11-20T13:48:42;2.20;99.90
23717;DHT22;22094;52.130;5.598;2022-11-20T14:02:18;2.40;99.90
23717;DHT22;22094;52.130;5.598;2022-11-20T14:04:47;2.30;99.90
23717;DHT22;22094;52.130;5.598;2022-11-20T14:07:14;2.80;99.90
23717;DHT22;22094;52.130;5.598;2022-11-20T14:09:51;2.30;99.90
23717;DHT22;22094;52.130;5.598;2022-11-20T14:12:20;2.20;99.90
23717;DHT22;22094;52.130;5.598;2022-11-20T14:14:51;2.70;99.90
23717;DHT22;22094;52.130;5.598;2022-11-20T14:17:34;2.30;99.90
23717;DHT22;22094;52.130;5.598;2022-11-20T14:20:13;2.30;99.90
23717;DHT22;22094;52.130;5.598;2022-11-20T14:22:48;2.30;99.90
23717;DHT22;22094;52.130;5.598;2022-11-20T14:27:53;2.30;99.90
23717;DHT22;22094;52.130;5.598;2022-11-20T14:30:23;2.20;99.90
23717;DHT22;22094;52.130;5.598;2022-11-20T14:32:49;2.20;99.90
23717;DHT22;22094;52.130;5.598;2022-11-20T14:35:27;2.20;99.90
23717;DHT22;22094;52.130;5.598;2022-11-20T14:37:53;2.20;99.90
23717;DHT22;22094;52.130;5.598;2022-11-20T14:40:34;2.20;99.90
23717;DHT22;22094;52.130;5.598;2022-11-20T14:43:02;2.20;99.90
23717;DHT22;22094;52.130;5.598;2022-11-20T14:45:40;2.30;99.90
23717;DHT22;22094;52.130;5.598;2022-11-20T14:48:06;2.30;99.90
23717;DHT22;22094;52.130;5.598;2022-11-20T14:50:34;2.20;99.90
23717;DHT22;22094;52.130;5.598;2022-11-20T14:53:01;2.20;99.90
23717;DHT22;22094;52.130;5.598;2022-11-20T14:55:35;2.20;99.90
23717;DHT22;22094;52.130;5.598;2022-11-20T14:58:06;2.20;99.90
23717;DHT22;22094;52.130;5.598;2022-11-20T15:00:35;2.20;99.90
23717;DHT22;22094;52.130;5.598;2022-11-20T15:03:15;2.20;99.90
23717;DHT22;22094;52.130;5.598;2022-11-20T15:05:46;2.20;99.90
23717;DHT22;22094;52.130;5.598;2022-11-20T15:08:13;2.20;99.90
23717;DHT22;22094;52.130;5.598;2022-11-20T15:10:45;2.10;99.90
23717;DHT22;22094;52.130;5.598;2022-11-20T15:13:32;2.20;99.90
23717;DHT22;22094;52.130;5.598;2022-11-20T15:16:02;2.10;99.90
23717;DHT22;22094;52.130;5.598;2022-11-20T15:18:37;2.10;99.90
23717;DHT22;22094;52.130;5.598;2022-11-20T15:21:10;2.10;99.90
23717;DHT22;22094;52.130;5.598;2022-11-20T15:23:36;2.10;99.90
23717;DHT22;22094;52.130;5.598;2022-11-20T15:26:04;2.10;99.90
23717;DHT22;22094;52.130;5.598;2022-11-20T15:28:33;2.10;99.90
23717;DHT22;22094;52.130;5.598;2022-11-20T15:31:00;2.10;99.90
23717;DHT22;22094;52.130;5.598;2022-11-20T15:33:26;2.10;99.90
23717;DHT22;22094;52.130;5.598;2022-11-20T15:35:51;2.20;99.90
23717;DHT22;22094;52.130;5.598;2022-11-20T15:38:17;2.10;99.90
23717;DHT22;22094;52.130;5.598;2022-11-20T15:40:42;2.10;99.90
23717;DHT22;22094;52.130;5.598;2022-11-20T15:43:08;2.10;99.90
23717;DHT22;22094;52.130;5.598;2022-11-20T15:45:43;2.10;99.90
23717;DHT22;22094;52.130;5.598;2022-11-20T15:48:14;2.10;99.90
23717;DHT22;22094;52.130;5.598;2022-11-20T15:53:14;2.10;99.90
23717;DHT22;22094;52.130;5.598;2022-11-20T15:55:39;2.10;99.90
23717;DHT22;22094;52.130;5.598;2022-11-20T15:58:05;2.10;99.90
23717;DHT22;22094;52.130;5.598;2022-11-20T16:00:31;2.10;99.90
23717;DHT22;22094;52.130;5.598;2022-11-20T16:02:56;2.10;99.90
23717;DHT22;22094;52.130;5.598;2022-11-20T16:05:22;2.00;99.90
23717;DHT22;22094;52.130;5.598;2022-11-20T16:07:49;2.00;99.90
23717;DHT22;22094;52.130;5.598;2022-11-20T16:10:15;2.00;99.90
23717;DHT22;22094;52.130;5.598;2022-11-20T16:12:41;2.00;99.90
23717;DHT22;22094;52.130;5.598;2022-11-20T16:15:25;2.10;99.90
23717;DHT22;22094;52.130;5.598;2022-11-20T16:18:11;2.10;99.90
23717;DHT22;22094;52.130;5.598;2022-11-20T16:20:37;2.10;99.90
23717;DHT22;22094;52.130;5.598;2022-11-20T16:23:03;2.10;99.90
23717;DHT22;22094;52.130;5.598;2022-11-20T16:25:29;2.20;99.90
23717;DHT22;22094;52.130;5.598;2022-11-20T16:27:54;2.10;99.90
23717;DHT22;22094;52.130;5.598;2022-11-20T16:30:20;2.20;99.90
23717;DHT22;22094;52.130;5.598;2022-11-20T16:32:46;2.20;99.90
23717;DHT22;22094;52.130;5.598;2022-11-20T16:35:11;2.20;99.90
23717;DHT22;22094;52.130;5.598;2022-11-20T16:37:37;2.20;99.90
23717;DHT22;22094;52.130;5.598;2022-11-20T16:40:03;2.20;99.90
23717;DHT22;22094;52.130;5.598;2022-11-20T16:42:33;2.30;99.90
23717;DHT22;22094;52.130;5.598;2022-11-20T16:44:59;2.30;99.90
23717;DHT22;22094;52.130;5.598;2022-11-20T16:47:24;2.30;99.90
23717;DHT22;22094;52.130;5.598;2022-11-20T16:49:50;2.30;99.90
23717;DHT22;22094;52.130;5.598;2022-11-20T16:52:15;2.30;99.90
23717;DHT22;22094;52.130;5.598;2022-11-20T16:54:41;2.40;99.90
23717;DHT22;22094;52.130;5.598;2022-11-20T16:57:06;2.40;99.90
23717;DHT22;22094;52.130;5.598;2022-11-20T16:59:32;2.40;99.90
23717;DHT22;22094;52.130;5.598;2022-11-20T17:01:57;2.40;99.90
23717;DHT22;22094;52.130;5.598;2022-11-20T17:04:23;2.40;99.90
23717;DHT22;22094;52.130;5.598;2022-11-20T17:06:49;2.40;99.90
23717;DHT22;22094;52.130;5.598;2022-11-20T17:09:14;2.40;99.90
23717;DHT22;22094;52.130;5.598;2022-11-20T17:11:40;2.40;99.90
23717;DHT22;22094;52.130;5.598;2022-11-20T17:14:05;2.40;99.90
23717;DHT22;22094;52.130;5.598;2022-11-20T17:16:32;2.40;99.90
23717;DHT22;22094;52.130;5.598;2022-11-20T17:18:59;2.40;99.90
23717;DHT22;22094;52.130;5.598;2022-11-20T17:21:24;2.40;99.90
23717;DHT22;22094;52.130;5.598;2022-11-20T17:23:50;2.50;99.90
23717;DHT22;22094;52.130;5.598;2022-11-20T17:26:21;2.50;99.90
23717;DHT22;22094;52.130;5.598;2022-11-20T17:28:56;2.50;99.90
23717;DHT22;22094;52.130;5.598;2022-11-20T17:31:22;2.50;99.90
23717;DHT22;22094;52.130;5.598;2022-11-20T17:33:48;2.50;99.90
23717;DHT22;22094;52.130;5.598;2022-11-20T17:36:15;2.50;99.90
23717;DHT22;22094;52.130;5.598;2022-11-20T17:38:42;2.50;99.90
23717;DHT22;22094;52.130;5.598;2022-11-20T17:41:13;2.50;99.90
23717;DHT22;22094;52.130;5.598;2022-11-20T17:43:39;2.50;99.90
23717;DHT22;22094;52.130;5.598;2022-11-20T17:46:10;2.50;99.90